sensor_id;sensor_type;location;lat;lon;timestamp;temperature;humidity
77467;DHT22;66564;42.482;25.548;2023-05-10T00:01:29;10.18;69.54
77467;DHT22;66564;42.482;25.548;2023-05-10T00:03:55;10.08;70.09
77467;DHT22;66564;42.482;25.548;2023-05-10T00:06:21;10.20;69.81
77467;DHT22;66564;42.482;25.548;2023-05-10T00:08:46;10.28;69.43
77467;DHT22;66564;42.482;25.548;2023-05-10T00:11:12;10.28;69.25
77467;DHT22;66564;42.482;25.548;2023-05-10T00:13:37;10.36;69.41
77467;DHT22;66564;42.482;25.548;2023-05-10T00:16:03;10.35;68.69
77467;DHT22;66564;42.482;25.548;2023-05-10T00:18:28;10.35;68.60
77467;DHT22;66564;42.482;25.548;2023-05-10T00:20:54;10.39;68.22
77467;DHT22;66564;42.482;25.548;2023-05-10T00:23:20;10.42;67.87
77467;DHT22;66564;42.482;25.548;2023-05-10T00:25:45;10.36;67.75
77467;DHT22;66564;42.482;25.548;2023-05-10T00:28:11;10.30;67.92
77467;DHT22;66564;42.482;25.548;2023-05-10T00:30:36;10.25;68.03
77467;DHT22;66564;42.482;25.548;2023-05-10T00:33:02;10.29;67.63
77467;DHT22;66564;42.482;25.548;2023-05-10T00:35:28;10.30;67.76
77467;DHT22;66564;42.482;25.548;2023-05-10T00:37:53;10.32;67.87
77467;DHT22;66564;42.482;25.548;2023-05-10T00:40:19;10.35;67.69
77467;DHT22;66564;42.482;25.548;2023-05-10T00:42:44;10.36;67.61
77467;DHT22;66564;42.482;25.548;2023-05-10T00:45:10;10.33;67.28
77467;DHT22;66564;42.482;25.548;2023-05-10T00:47:36;10.19;67.66
77467;DHT22;66564;42.482;25.548;2023-05-10T00:50:02;10.23;67.55
77467;DHT22;66564;42.482;25.548;2023-05-10T00:52:28;10.28;67.44
77467;DHT22;66564;42.482;25.548;2023-05-10T00:54:54;10.30;67.16
77467;DHT22;66564;42.482;25.548;2023-05-10T00:57:21;10.29;67.05
77467;DHT22;66564;42.482;25.548;2023-05-10T00:59:46;10.33;66.87
77467;DHT22;66564;42.482;25.548;2023-05-10T01:02:12;10.36;66.42
77467;DHT22;66564;42.482;25.548;2023-05-10T01:04:38;10.35;66.33
77467;DHT22;66564;42.482;25.548;2023-05-10T01:07:05;10.36;66.60
77467;DHT22;66564;42.482;25.548;2023-05-10T01:09:30;10.36;66.18
77467;DHT22;66564;42.482;25.548;2023-05-10T01:11:56;10.42;65.69
77467;DHT22;66564;42.482;25.548;2023-05-10T01:14:22;10.42;65.46
77467;DHT22;66564;42.482;25.548;2023-05-10T01:16:49;10.35;65.18
77467;DHT22;66564;42.482;25.548;2023-05-10T01:19:19;10.29;64.83
77467;DHT22;66564;42.482;25.548;2023-05-10T01:21:49;10.35;65.17
77467;DHT22;66564;42.482;25.548;2023-05-10T01:27:25;10.36;64.28
77467;DHT22;66564;42.482;25.548;2023-05-10T01:30:05;10.33;63.94
77467;DHT22;66564;42.482;25.548;2023-05-10T01:32:45;10.29;64.14
77467;DHT22;66564;42.482;25.548;2023-05-10T01:35:40;10.33;64.35
77467;DHT22;66564;42.482;25.548;2023-05-10T01:38:21;10.38;63.82
77467;DHT22;66564;42.482;25.548;2023-05-10T01:43:32;10.40;63.58
77467;DHT22;66564;42.482;25.548;2023-05-10T01:46:03;10.40;63.17
77467;DHT22;66564;42.482;25.548;2023-05-10T01:48:37;10.39;63.12
77467;DHT22;66564;42.482;25.548;2023-05-10T01:51:05;10.39;63.27
77467;DHT22;66564;42.482;25.548;2023-05-10T01:53:32;10.40;63.91
77467;DHT22;66564;42.482;25.548;2023-05-10T01:55:59;10.45;64.15
77467;DHT22;66564;42.482;25.548;2023-05-10T01:58:29;10.48;64.94
77467;DHT22;66564;42.482;25.548;2023-05-10T02:00:57;10.48;64.61
77467;DHT22;66564;42.482;25.548;2023-05-10T02:03:25;10.49;63.79
77467;DHT22;66564;42.482;25.548;2023-05-10T02:05:53;10.48;64.08
77467;DHT22;66564;42.482;25.548;2023-05-10T02:08:20;10.48;64.57
77467;DHT22;66564;42.482;25.548;2023-05-10T02:10:49;10.53;64.63
77467;DHT22;66564;42.482;25.548;2023-05-10T02:13:16;10.56;64.97
77467;DHT22;66564;42.482;25.548;2023-05-10T02:15:42;10.57;65.22
77467;DHT22;66564;42.482;25.548;2023-05-10T02:18:10;10.59;65.09
77467;DHT22;66564;42.482;25.548;2023-05-10T02:20:37;10.56;65.12
77467;DHT22;66564;42.482;25.548;2023-05-10T02:23:03;10.60;64.96
77467;DHT22;66564;42.482;25.548;2023-05-10T02:25:31;10.59;65.04
77467;DHT22;66564;42.482;25.548;2023-05-10T02:27:57;10.63;65.06
77467;DHT22;66564;42.482;25.548;2023-05-10T02:30:25;10.63;64.79
77467;DHT22;66564;42.482;25.548;2023-05-10T02:32:51;10.63;64.86
77467;DHT22;66564;42.482;25.548;2023-05-10T02:35:18;10.60;64.59
77467;DHT22;66564;42.482;25.548;2023-05-10T02:37:45;10.62;64.53
77467;DHT22;66564;42.482;25.548;2023-05-10T02:40:12;10.69;64.42
77467;DHT22;66564;42.482;25.548;2023-05-10T02:42:41;10.66;64.46
77467;DHT22;66564;42.482;25.548;2023-05-10T02:45:11;10.69;64.43
77467;DHT22;66564;42.482;25.548;2023-05-10T02:47:38;10.69;64.98
77467;DHT22;66564;42.482;25.548;2023-05-10T02:50:03;10.67;64.40
77467;DHT22;66564;42.482;25.548;2023-05-10T02:52:34;10.67;64.74
77467;DHT22;66564;42.482;25.548;2023-05-10T02:55:02;10.64;65.30
77467;DHT22;66564;42.482;25.548;2023-05-10T02:57:34;10.69;65.21
77467;DHT22;66564;42.482;25.548;2023-05-10T03:00:02;10.69;65.27
77467;DHT22;66564;42.482;25.548;2023-05-10T03:02:28;10.67;64.28
77467;DHT22;66564;42.482;25.548;2023-05-10T03:04:56;10.70;64.19
77467;DHT22;66564;42.482;25.548;2023-05-10T03:07:21;10.69;64.06
77467;DHT22;66564;42.482;25.548;2023-05-10T03:09:50;10.66;62.86
77467;DHT22;66564;42.482;25.548;2023-05-10T03:15:16;10.60;62.44
77467;DHT22;66564;42.482;25.548;2023-05-10T03:17:54;10.57;63.25
77467;DHT22;66564;42.482;25.548;2023-05-10T03:20:26;10.49;62.48
77467;DHT22;66564;42.482;25.548;2023-05-10T03:23:30;10.49;63.72
77467;DHT22;66564;42.482;25.548;2023-05-10T03:25:59;10.50;63.30
77467;DHT22;66564;42.482;25.548;2023-05-10T03:28:26;10.48;63.11
77467;DHT22;66564;42.482;25.548;2023-05-10T03:30:55;10.43;63.06
77467;DHT22;66564;42.482;25.548;2023-05-10T03:33:21;10.40;63.31
77467;DHT22;66564;42.482;25.548;2023-05-10T03:35:47;10.32;63.63
77467;DHT22;66564;42.482;25.548;2023-05-10T03:38:12;10.36;63.34
77467;DHT22;66564;42.482;25.548;2023-05-10T03:40:38;10.38;63.69
77467;DHT22;66564;42.482;25.548;2023-05-10T03:43:04;10.29;63.77
77467;DHT22;66564;42.482;25.548;2023-05-10T03:45:29;10.30;64.34
77467;DHT22;66564;42.482;25.548;2023-05-10T03:47:57;10.35;65.80
77467;DHT22;66564;42.482;25.548;2023-05-10T03:50:22;10.46;66.74
77467;DHT22;66564;42.482;25.548;2023-05-10T03:52:48;10.56;67.17
77467;DHT22;66564;42.482;25.548;2023-05-10T03:55:14;10.50;66.88
77467;DHT22;66564;42.482;25.548;2023-05-10T03:57:39;10.52;67.21
77467;DHT22;66564;42.482;25.548;2023-05-10T04:00:05;10.55;66.95
77467;DHT22;66564;42.482;25.548;2023-05-10T04:02:31;10.63;66.44
77467;DHT22;66564;42.482;25.548;2023-05-10T04:04:56;10.62;65.88
77467;DHT22;66564;42.482;25.548;2023-05-10T04:07:22;10.64;65.80
77467;DHT22;66564;42.482;25.548;2023-05-10T04:09:48;10.67;66.25
77467;DHT22;66564;42.482;25.548;2023-05-10T04:12:13;10.69;65.17
77467;DHT22;66564;42.482;25.548;2023-05-10T04:14:39;10.72;65.70
77467;DHT22;66564;42.482;25.548;2023-05-10T04:17:04;10.73;65.58
77467;DHT22;66564;42.482;25.548;2023-05-10T04:19:31;10.73;64.52
77467;DHT22;66564;42.482;25.548;2023-05-10T04:21:56;10.74;63.27
77467;DHT22;66564;42.482;25.548;2023-05-10T04:24:22;10.74;63.06
77467;DHT22;66564;42.482;25.548;2023-05-10T04:26:47;10.72;63.12
77467;DHT22;66564;42.482;25.548;2023-05-10T04:29:13;10.77;63.00
77467;DHT22;66564;42.482;25.548;2023-05-10T04:31:38;10.81;63.23
77467;DHT22;66564;42.482;25.548;2023-05-10T04:34:04;10.83;62.64
77467;DHT22;66564;42.482;25.548;2023-05-10T04:36:30;10.80;62.44
77467;DHT22;66564;42.482;25.548;2023-05-10T04:38:57;10.83;62.31
77467;DHT22;66564;42.482;25.548;2023-05-10T04:41:23;10.80;62.07
77467;DHT22;66564;42.482;25.548;2023-05-10T04:43:48;10.79;62.53
77467;DHT22;66564;42.482;25.548;2023-05-10T04:46:14;10.81;62.86
77467;DHT22;66564;42.482;25.548;2023-05-10T04:48:40;10.69;62.46
77467;DHT22;66564;42.482;25.548;2023-05-10T04:51:05;10.72;62.83
77467;DHT22;66564;42.482;25.548;2023-05-10T04:53:31;10.57;63.81
77467;DHT22;66564;42.482;25.548;2023-05-10T04:55:57;10.59;64.05
77467;DHT22;66564;42.482;25.548;2023-05-10T04:58:22;10.73;64.10
77467;DHT22;66564;42.482;25.548;2023-05-10T05:00:48;10.89;63.27
77467;DHT22;66564;42.482;25.548;2023-05-10T05:03:13;10.76;64.74
77467;DHT22;66564;42.482;25.548;2023-05-10T05:05:39;10.93;63.84
77467;DHT22;66564;42.482;25.548;2023-05-10T05:08:04;11.08;63.97
77467;DHT22;66564;42.482;25.548;2023-05-10T05:10:30;11.17;63.41
77467;DHT22;66564;42.482;25.548;2023-05-10T05:12:56;11.20;62.72
77467;DHT22;66564;42.482;25.548;2023-05-10T05:15:21;11.14;63.11
77467;DHT22;66564;42.482;25.548;2023-05-10T05:17:59;11.08;62.53
77467;DHT22;66564;42.482;25.548;2023-05-10T05:20:24;11.25;62.48
77467;DHT22;66564;42.482;25.548;2023-05-10T05:22:50;11.35;62.35
77467;DHT22;66564;42.482;25.548;2023-05-10T05:25:15;11.47;62.49
77467;DHT22;66564;42.482;25.548;2023-05-10T05:27:41;11.32;62.63
77467;DHT22;66564;42.482;25.548;2023-05-10T05:30:07;11.35;62.66
77467;DHT22;66564;42.482;25.548;2023-05-10T05:32:32;11.44;62.62
77467;DHT22;66564;42.482;25.548;2023-05-10T05:34:58;11.48;62.19
77467;DHT22;66564;42.482;25.548;2023-05-10T05:37:23;11.24;62.71
77467;DHT22;66564;42.482;25.548;2023-05-10T05:39:49;11.38;62.22
77467;DHT22;66564;42.482;25.548;2023-05-10T05:42:15;11.35;62.92
77467;DHT22;66564;42.482;25.548;2023-05-10T05:44:42;11.27;62.13
77467;DHT22;66564;42.482;25.548;2023-05-10T05:47:08;11.32;62.39
77467;DHT22;66564;42.482;25.548;2023-05-10T05:49:34;11.42;62.35
77467;DHT22;66564;42.482;25.548;2023-05-10T05:52:00;11.42;62.60
77467;DHT22;66564;42.482;25.548;2023-05-10T05:54:26;11.11;62.68
77467;DHT22;66564;42.482;25.548;2023-05-10T05:56:55;11.04;64.27
77467;DHT22;66564;42.482;25.548;2023-05-10T05:59:21;11.11;64.35
77467;DHT22;66564;42.482;25.548;2023-05-10T06:01:47;11.24;63.23
77467;DHT22;66564;42.482;25.548;2023-05-10T06:04:12;11.32;63.04
77467;DHT22;66564;42.482;25.548;2023-05-10T06:06:38;11.35;63.67
77467;DHT22;66564;42.482;25.548;2023-05-10T06:09:03;11.28;63.78
77467;DHT22;66564;42.482;25.548;2023-05-10T06:11:29;11.47;63.03
77467;DHT22;66564;42.482;25.548;2023-05-10T06:13:57;11.27;63.63
77467;DHT22;66564;42.482;25.548;2023-05-10T06:16:23;11.14;62.78
77467;DHT22;66564;42.482;25.548;2023-05-10T06:18:48;11.35;61.87
77467;DHT22;66564;42.482;25.548;2023-05-10T06:21:14;11.44;62.94
77467;DHT22;66564;42.482;25.548;2023-05-10T06:23:40;11.62;62.73
77467;DHT22;66564;42.482;25.548;2023-05-10T06:26:05;11.54;62.22
77467;DHT22;66564;42.482;25.548;2023-05-10T06:28:31;11.54;63.00
77467;DHT22;66564;42.482;25.548;2023-05-10T06:30:57;11.51;62.09
77467;DHT22;66564;42.482;25.548;2023-05-10T06:33:23;11.65;61.75
77467;DHT22;66564;42.482;25.548;2023-05-10T06:35:48;11.44;63.08
77467;DHT22;66564;42.482;25.548;2023-05-10T06:38:15;11.39;62.84
77467;DHT22;66564;42.482;25.548;2023-05-10T06:40:41;11.65;62.40
77467;DHT22;66564;42.482;25.548;2023-05-10T06:43:07;11.75;62.53
77467;DHT22;66564;42.482;25.548;2023-05-10T06:45:32;11.91;61.02
77467;DHT22;66564;42.482;25.548;2023-05-10T06:47:58;11.82;61.57
77467;DHT22;66564;42.482;25.548;2023-05-10T06:50:24;11.95;60.75
77467;DHT22;66564;42.482;25.548;2023-05-10T06:52:49;11.95;61.74
77467;DHT22;66564;42.482;25.548;2023-05-10T06:55:14;11.99;61.57
77467;DHT22;66564;42.482;25.548;2023-05-10T06:57:40;12.05;61.69
77467;DHT22;66564;42.482;25.548;2023-05-10T07:00:06;11.93;60.58
77467;DHT22;66564;42.482;25.548;2023-05-10T07:02:32;11.93;61.38
77467;DHT22;66564;42.482;25.548;2023-05-10T07:04:57;11.81;62.41
77467;DHT22;66564;42.482;25.548;2023-05-10T07:07:23;11.71;63.10
77467;DHT22;66564;42.482;25.548;2023-05-10T07:09:48;11.85;62.68
77467;DHT22;66564;42.482;25.548;2023-05-10T07:12:15;11.93;61.71
77467;DHT22;66564;42.482;25.548;2023-05-10T07:14:43;12.10;61.65
77467;DHT22;66564;42.482;25.548;2023-05-10T07:17:09;12.26;61.29
77467;DHT22;66564;42.482;25.548;2023-05-10T07:19:35;12.28;61.40
77467;DHT22;66564;42.482;25.548;2023-05-10T07:22:01;12.23;60.89
77467;DHT22;66564;42.482;25.548;2023-05-10T07:24:26;12.22;61.09
77467;DHT22;66564;42.482;25.548;2023-05-10T07:26:55;12.23;59.90
77467;DHT22;66564;42.482;25.548;2023-05-10T07:29:20;12.28;61.51
77467;DHT22;66564;42.482;25.548;2023-05-10T07:31:46;12.08;61.18
77467;DHT22;66564;42.482;25.548;2023-05-10T07:34:12;11.96;61.48
77467;DHT22;66564;42.482;25.548;2023-05-10T07:36:37;12.28;59.40
77467;DHT22;66564;42.482;25.548;2023-05-10T07:39:03;12.46;61.03
77467;DHT22;66564;42.482;25.548;2023-05-10T07:41:29;12.67;59.57
77467;DHT22;66564;42.482;25.548;2023-05-10T07:43:54;12.86;57.10
77467;DHT22;66564;42.482;25.548;2023-05-10T07:46:20;13.11;57.58
77467;DHT22;66564;42.482;25.548;2023-05-10T07:48:45;13.29;57.32
77467;DHT22;66564;42.482;25.548;2023-05-10T07:51:11;13.42;57.64
77467;DHT22;66564;42.482;25.548;2023-05-10T07:53:38;13.52;55.07
77467;DHT22;66564;42.482;25.548;2023-05-10T07:56:24;13.61;54.32
77467;DHT22;66564;42.482;25.548;2023-05-10T07:58:52;13.66;54.39
77467;DHT22;66564;42.482;25.548;2023-05-10T08:01:18;13.08;55.18
77467;DHT22;66564;42.482;25.548;2023-05-10T08:03:44;13.41;55.23
77467;DHT22;66564;42.482;25.548;2023-05-10T08:06:11;13.45;54.70
77467;DHT22;66564;42.482;25.548;2023-05-10T08:08:37;13.62;54.95
77467;DHT22;66564;42.482;25.548;2023-05-10T08:11:03;13.79;54.15
77467;DHT22;66564;42.482;25.548;2023-05-10T08:13:29;13.86;53.66
77467;DHT22;66564;42.482;25.548;2023-05-10T08:15:54;14.09;53.38
77467;DHT22;66564;42.482;25.548;2023-05-10T08:18:20;14.33;55.39
77467;DHT22;66564;42.482;25.548;2023-05-10T08:20:47;14.46;53.92
77467;DHT22;66564;42.482;25.548;2023-05-10T08:23:13;14.60;50.96
77467;DHT22;66564;42.482;25.548;2023-05-10T08:25:39;14.73;51.68
77467;DHT22;66564;42.482;25.548;2023-05-10T08:28:05;14.81;51.80
77467;DHT22;66564;42.482;25.548;2023-05-10T08:30:30;14.84;52.01
77467;DHT22;66564;42.482;25.548;2023-05-10T08:32:56;14.40;50.73
77467;DHT22;66564;42.482;25.548;2023-05-10T08:35:22;14.63;52.12
77467;DHT22;66564;42.482;25.548;2023-05-10T08:37:47;14.88;52.40
77467;DHT22;66564;42.482;25.548;2023-05-10T08:40:14;14.97;52.45
77467;DHT22;66564;42.482;25.548;2023-05-10T08:42:43;15.15;50.20
77467;DHT22;66564;42.482;25.548;2023-05-10T08:45:13;15.04;50.21
77467;DHT22;66564;42.482;25.548;2023-05-10T08:47:39;15.04;50.33
77467;DHT22;66564;42.482;25.548;2023-05-10T08:50:06;15.12;50.53
77467;DHT22;66564;42.482;25.548;2023-05-10T08:52:32;15.24;48.04
77467;DHT22;66564;42.482;25.548;2023-05-10T08:55:02;15.42;50.03
77467;DHT22;66564;42.482;25.548;2023-05-10T08:57:28;15.55;46.65
77467;DHT22;66564;42.482;25.548;2023-05-10T08:59:54;15.70;46.84
77467;DHT22;66564;42.482;25.548;2023-05-10T09:02:19;15.79;47.16
77467;DHT22;66564;42.482;25.548;2023-05-10T09:04:47;15.69;46.26
77467;DHT22;66564;42.482;25.548;2023-05-10T09:07:14;15.78;46.89
77467;DHT22;66564;42.482;25.548;2023-05-10T09:09:42;15.30;47.54
77467;DHT22;66564;42.482;25.548;2023-05-10T09:12:09;15.08;49.39
77467;DHT22;66564;42.482;25.548;2023-05-10T09:14:37;15.35;49.68
77467;DHT22;66564;42.482;25.548;2023-05-10T09:17:04;15.49;48.70
77467;DHT22;66564;42.482;25.548;2023-05-10T09:19:29;14.95;51.33
77467;DHT22;66564;42.482;25.548;2023-05-10T09:21:55;15.28;50.95
77467;DHT22;66564;42.482;25.548;2023-05-10T09:24:25;15.32;50.21
77467;DHT22;66564;42.482;25.548;2023-05-10T09:26:51;15.20;50.48
77467;DHT22;66564;42.482;25.548;2023-05-10T09:29:16;15.02;48.28
77467;DHT22;66564;42.482;25.548;2023-05-10T09:31:50;14.95;50.62
77467;DHT22;66564;42.482;25.548;2023-05-10T09:34:32;15.31;50.58
77467;DHT22;66564;42.482;25.548;2023-05-10T09:37:01;15.28;50.21
77467;DHT22;66564;42.482;25.548;2023-05-10T09:39:37;15.38;49.22
77467;DHT22;66564;42.482;25.548;2023-05-10T09:42:08;15.45;48.49
77467;DHT22;66564;42.482;25.548;2023-05-10T09:44:34;15.39;48.35
77467;DHT22;66564;42.482;25.548;2023-05-10T09:47:03;15.63;47.68
77467;DHT22;66564;42.482;25.548;2023-05-10T09:49:29;15.81;49.45
77467;DHT22;66564;42.482;25.548;2023-05-10T09:52:06;15.67;47.56
77467;DHT22;66564;42.482;25.548;2023-05-10T09:54:32;15.58;47.95
77467;DHT22;66564;42.482;25.548;2023-05-10T09:56:58;15.86;47.48
77467;DHT22;66564;42.482;25.548;2023-05-10T09:59:26;15.52;46.02
77467;DHT22;66564;42.482;25.548;2023-05-10T10:01:54;15.25;47.60
77467;DHT22;66564;42.482;25.548;2023-05-10T10:04:20;15.70;47.49
77467;DHT22;66564;42.482;25.548;2023-05-10T10:06:58;15.49;50.90
77467;DHT22;66564;42.482;25.548;2023-05-10T10:09:24;15.49;48.84
77467;DHT22;66564;42.482;25.548;2023-05-10T10:11:50;15.78;47.88
77467;DHT22;66564;42.482;25.548;2023-05-10T10:14:18;15.89;47.85
77467;DHT22;66564;42.482;25.548;2023-05-10T10:16:45;15.97;48.57
77467;DHT22;66564;42.482;25.548;2023-05-10T10:19:11;16.14;47.41
77467;DHT22;66564;42.482;25.548;2023-05-10T10:21:37;15.95;47.57
77467;DHT22;66564;42.482;25.548;2023-05-10T10:24:06;16.17;47.84
77467;DHT22;66564;42.482;25.548;2023-05-10T10:26:35;16.02;46.44
77467;DHT22;66564;42.482;25.548;2023-05-10T10:34:46;16.20;47.38
77467;DHT22;66564;42.482;25.548;2023-05-10T10:37:13;16.09;47.23
77467;DHT22;66564;42.482;25.548;2023-05-10T10:39:42;15.93;47.41
77467;DHT22;66564;42.482;25.548;2023-05-10T10:42:07;15.78;49.28
77467;DHT22;66564;42.482;25.548;2023-05-10T10:44:39;15.73;48.47
77467;DHT22;66564;42.482;25.548;2023-05-10T10:52:34;15.73;48.51
77467;DHT22;66564;42.482;25.548;2023-05-10T10:57:43;15.48;47.87
77467;DHT22;66564;42.482;25.548;2023-05-10T11:00:22;15.45;47.64
77467;DHT22;66564;42.482;25.548;2023-05-10T11:03:08;15.39;47.99
77467;DHT22;66564;42.482;25.548;2023-05-10T11:08:28;15.45;48.75
77467;DHT22;66564;42.482;25.548;2023-05-10T11:13:33;15.49;48.04
77467;DHT22;66564;42.482;25.548;2023-05-10T11:16:10;15.51;48.52
77467;DHT22;66564;42.482;25.548;2023-05-10T11:18:37;15.54;48.44
77467;DHT22;66564;42.482;25.548;2023-05-10T11:21:04;15.62;48.59
77467;DHT22;66564;42.482;25.548;2023-05-10T11:26:13;15.69;47.43
77467;DHT22;66564;42.482;25.548;2023-05-10T11:28:46;15.83;48.66
77467;DHT22;66564;42.482;25.548;2023-05-10T11:31:22;15.79;47.84
77467;DHT22;66564;42.482;25.548;2023-05-10T11:33:53;15.92;47.03
77467;DHT22;66564;42.482;25.548;2023-05-10T11:36:23;15.97;46.99
77467;DHT22;66564;42.482;25.548;2023-05-10T11:38:50;16.10;46.56
77467;DHT22;66564;42.482;25.548;2023-05-10T11:41:18;16.03;45.29
77467;DHT22;66564;42.482;25.548;2023-05-10T11:43:45;16.06;46.52
77467;DHT22;66564;42.482;25.548;2023-05-10T11:46:14;16.13;45.98
77467;DHT22;66564;42.482;25.548;2023-05-10T11:48:42;16.20;45.41
77467;DHT22;66564;42.482;25.548;2023-05-10T11:51:08;16.24;45.67
77467;DHT22;66564;42.482;25.548;2023-05-10T11:53:34;16.33;46.13
77467;DHT22;66564;42.482;25.548;2023-05-10T11:58:30;16.21;47.12
77467;DHT22;66564;42.482;25.548;2023-05-10T12:00:56;15.90;47.26
77467;DHT22;66564;42.482;25.548;2023-05-10T12:03:21;15.79;47.17
77467;DHT22;66564;42.482;25.548;2023-05-10T12:05:47;15.78;48.78
77467;DHT22;66564;42.482;25.548;2023-05-10T12:08:14;15.61;47.73
77467;DHT22;66564;42.482;25.548;2023-05-10T12:10:40;15.72;48.34
77467;DHT22;66564;42.482;25.548;2023-05-10T12:13:11;15.61;48.09
77467;DHT22;66564;42.482;25.548;2023-05-10T12:15:37;15.62;48.36
77467;DHT22;66564;42.482;25.548;2023-05-10T12:18:02;15.73;48.14
77467;DHT22;66564;42.482;25.548;2023-05-10T12:20:28;15.85;48.05
77467;DHT22;66564;42.482;25.548;2023-05-10T12:22:55;15.99;48.35
77467;DHT22;66564;42.482;25.548;2023-05-10T12:25:23;16.00;47.40
77467;DHT22;66564;42.482;25.548;2023-05-10T12:27:51;16.09;48.84
77467;DHT22;66564;42.482;25.548;2023-05-10T12:30:25;16.09;47.29
77467;DHT22;66564;42.482;25.548;2023-05-10T12:32:52;16.14;45.21
77467;DHT22;66564;42.482;25.548;2023-05-10T12:35:32;16.37;46.47
77467;DHT22;66564;42.482;25.548;2023-05-10T12:37:58;16.06;46.45
77467;DHT22;66564;42.482;25.548;2023-05-10T12:40:30;16.37;46.04
77467;DHT22;66564;42.482;25.548;2023-05-10T12:43:07;16.23;45.33
77467;DHT22;66564;42.482;25.548;2023-05-10T12:46:14;16.34;45.06
77467;DHT22;66564;42.482;25.548;2023-05-10T12:48:51;16.53;44.82
77467;DHT22;66564;42.482;25.548;2023-05-10T12:54:30;16.65;45.65
77467;DHT22;66564;42.482;25.548;2023-05-10T12:56:55;16.47;44.88
77467;DHT22;66564;42.482;25.548;2023-05-10T12:59:21;16.50;45.35
77467;DHT22;66564;42.482;25.548;2023-05-10T13:01:46;16.72;46.33
77467;DHT22;66564;42.482;25.548;2023-05-10T13:04:12;16.81;45.81
77467;DHT22;66564;42.482;25.548;2023-05-10T13:06:37;17.02;47.17
77467;DHT22;66564;42.482;25.548;2023-05-10T13:09:03;16.87;45.93
77467;DHT22;66564;42.482;25.548;2023-05-10T13:11:28;17.10;46.41
77467;DHT22;66564;42.482;25.548;2023-05-10T13:13:54;17.24;45.47
77467;DHT22;66564;42.482;25.548;2023-05-10T13:16:20;17.12;44.19
77467;DHT22;66564;42.482;25.548;2023-05-10T13:18:47;17.18;44.74
77467;DHT22;66564;42.482;25.548;2023-05-10T13:21:13;17.39;44.40
77467;DHT22;66564;42.482;25.548;2023-05-10T13:23:39;17.58;44.03
77467;DHT22;66564;42.482;25.548;2023-05-10T13:26:04;17.59;42.70
77467;DHT22;66564;42.482;25.548;2023-05-10T13:28:30;17.63;43.80
77467;DHT22;66564;42.482;25.548;2023-05-10T13:30:55;17.38;44.52
77467;DHT22;66564;42.482;25.548;2023-05-10T13:33:21;17.42;43.50
77467;DHT22;66564;42.482;25.548;2023-05-10T13:35:46;17.39;41.79
77467;DHT22;66564;42.482;25.548;2023-05-10T13:38:12;17.02;43.44
77467;DHT22;66564;42.482;25.548;2023-05-10T13:40:38;16.61;43.46
77467;DHT22;66564;42.482;25.548;2023-05-10T13:43:04;16.44;44.36
77467;DHT22;66564;42.482;25.548;2023-05-10T13:45:29;16.50;43.70
77467;DHT22;66564;42.482;25.548;2023-05-10T13:47:55;16.49;44.65
77467;DHT22;66564;42.482;25.548;2023-05-10T13:50:20;16.54;44.61
77467;DHT22;66564;42.482;25.548;2023-05-10T13:52:47;16.46;44.72
77467;DHT22;66564;42.482;25.548;2023-05-10T13:58:35;16.50;45.80
77467;DHT22;66564;42.482;25.548;2023-05-10T14:01:01;16.33;45.82
77467;DHT22;66564;42.482;25.548;2023-05-10T14:03:27;16.27;45.28
77467;DHT22;66564;42.482;25.548;2023-05-10T14:05:52;16.31;45.61
77467;DHT22;66564;42.482;25.548;2023-05-10T14:08:18;16.36;46.56
77467;DHT22;66564;42.482;25.548;2023-05-10T14:10:43;16.29;45.75
77467;DHT22;66564;42.482;25.548;2023-05-10T14:13:09;16.00;46.57
77467;DHT22;66564;42.482;25.548;2023-05-10T14:15:34;16.00;45.42
77467;DHT22;66564;42.482;25.548;2023-05-10T14:18:00;15.99;45.69
77467;DHT22;66564;42.482;25.548;2023-05-10T14:20:25;15.70;48.05
77467;DHT22;66564;42.482;25.548;2023-05-10T14:22:52;15.78;46.03
77467;DHT22;66564;42.482;25.548;2023-05-10T14:25:18;15.82;44.91
77467;DHT22;66564;42.482;25.548;2023-05-10T14:27:43;15.78;45.61
77467;DHT22;66564;42.482;25.548;2023-05-10T14:30:09;15.66;46.53
77467;DHT22;66564;42.482;25.548;2023-05-10T14:32:35;15.87;46.28
77467;DHT22;66564;42.482;25.548;2023-05-10T14:35:02;15.58;48.18
77467;DHT22;66564;42.482;25.548;2023-05-10T14:37:28;15.89;48.12
77467;DHT22;66564;42.482;25.548;2023-05-10T14:39:53;15.90;48.07
77467;DHT22;66564;42.482;25.548;2023-05-10T14:42:19;15.55;47.80
77467;DHT22;66564;42.482;25.548;2023-05-10T14:44:44;15.70;47.29
77467;DHT22;66564;42.482;25.548;2023-05-10T14:47:10;14.95;50.05
77467;DHT22;66564;42.482;25.548;2023-05-10T14:49:36;15.27;46.66
77467;DHT22;66564;42.482;25.548;2023-05-10T14:52:01;14.90;47.40
77467;DHT22;66564;42.482;25.548;2023-05-10T14:54:27;15.11;46.24
77467;DHT22;66564;42.482;25.548;2023-05-10T14:56:52;15.18;46.89
77467;DHT22;66564;42.482;25.548;2023-05-10T14:59:18;15.02;46.13
77467;DHT22;66564;42.482;25.548;2023-05-10T15:01:44;15.14;46.78
77467;DHT22;66564;42.482;25.548;2023-05-10T15:04:09;15.24;46.92
77467;DHT22;66564;42.482;25.548;2023-05-10T15:06:35;15.10;46.82
77467;DHT22;66564;42.482;25.548;2023-05-10T15:09:02;15.11;47.72
77467;DHT22;66564;42.482;25.548;2023-05-10T15:11:28;15.17;47.76
77467;DHT22;66564;42.482;25.548;2023-05-10T15:13:54;15.28;47.71
77467;DHT22;66564;42.482;25.548;2023-05-10T15:16:20;15.24;47.80
77467;DHT22;66564;42.482;25.548;2023-05-10T15:18:46;15.18;47.18
77467;DHT22;66564;42.482;25.548;2023-05-10T15:21:11;14.91;48.68
77467;DHT22;66564;42.482;25.548;2023-05-10T15:23:37;14.95;47.12
77467;DHT22;66564;42.482;25.548;2023-05-10T15:26:03;14.95;46.80
77467;DHT22;66564;42.482;25.548;2023-05-10T15:28:31;14.67;48.58
77467;DHT22;66564;42.482;25.548;2023-05-10T15:30:56;14.68;48.92
77467;DHT22;66564;42.482;25.548;2023-05-10T15:33:22;14.78;48.59
77467;DHT22;66564;42.482;25.548;2023-05-10T15:35:48;14.80;48.12
77467;DHT22;66564;42.482;25.548;2023-05-10T15:38:14;14.46;49.37
77467;DHT22;66564;42.482;25.548;2023-05-10T15:40:40;14.56;49.17
77467;DHT22;66564;42.482;25.548;2023-05-10T15:43:05;14.44;48.83
77467;DHT22;66564;42.482;25.548;2023-05-10T15:45:31;14.48;49.58
77467;DHT22;66564;42.482;25.548;2023-05-10T15:47:57;14.41;51.34
77467;DHT22;66564;42.482;25.548;2023-05-10T15:50:24;14.48;51.15
77467;DHT22;66564;42.482;25.548;2023-05-10T15:52:50;14.25;51.09
77467;DHT22;66564;42.482;25.548;2023-05-10T15:55:15;14.19;51.10